X  ZavřítMETAR data      LKPD Pardubice

Teplota

8°C Teplota

7°C Rosný bod

93% Vlhkost



Vítr

 3 KM/H

 2 MPH

 1 M/S

 2 KTS



240°
ZJZ směr
Současné podmínky

Shallow Fog Mist Shallow Fog Mist
Tlak vzduchu 1007.92 (hPa) - 29.76 (in)
Dohlednost 1.2 (mi) - 2 (km)
Letiště
Kód letiště LKPD

Lokace Pardubice 80 (km)

Metar:
LKPD 160118Z 24002KT 2000 MIFG BR NSC 08/07 Q1008 RMK YLO

Čas: 16-10-2019 03:18